createdAt,value
2018-10-07T00:00:51.308Z,0.00
2018-10-07T00:01:51.351Z,0.00
2018-10-07T00:02:51.390Z,0.00
2018-10-07T00:03:51.430Z,0.00
2018-10-07T00:04:51.473Z,0.00
2018-10-07T00:05:51.519Z,0.00
2018-10-07T00:06:51.554Z,0.00
2018-10-07T00:07:51.602Z,0.00
2018-10-07T00:08:51.634Z,0.00
2018-10-07T00:09:51.674Z,0.00
2018-10-07T00:10:51.715Z,0.00
2018-10-07T00:11:51.755Z,0.00
2018-10-07T00:12:51.795Z,0.00
2018-10-07T00:13:51.836Z,0.00
2018-10-07T00:14:51.880Z,0.00
2018-10-07T00:15:51.917Z,0.00
2018-10-07T00:16:51.958Z,0.00
2018-10-07T00:17:51.999Z,0.00
2018-10-07T00:18:52.039Z,0.00
2018-10-07T00:19:52.084Z,0.00
2018-10-07T00:20:52.129Z,0.00
2018-10-07T00:21:52.163Z,0.00
2018-10-07T00:22:52.202Z,0.00
2018-10-07T00:23:52.241Z,0.00
2018-10-07T00:24:52.283Z,0.00
2018-10-07T00:25:52.326Z,0.00
2018-10-07T00:26:52.365Z,0.00
2018-10-07T00:27:52.407Z,0.00
2018-10-07T00:28:52.446Z,0.00
2018-10-07T00:29:52.487Z,0.00
2018-10-07T00:30:52.529Z,0.00
2018-10-07T00:31:52.570Z,0.00
2018-10-07T00:32:52.608Z,0.00
2018-10-07T00:33:52.656Z,0.00
2018-10-07T00:34:52.691Z,0.00
2018-10-07T00:35:52.730Z,0.00
2018-10-07T00:36:52.775Z,0.00
2018-10-07T00:37:52.817Z,0.00
2018-10-07T00:38:52.854Z,0.00
2018-10-07T00:39:52.894Z,0.00
2018-10-07T00:40:52.933Z,0.00
2018-10-07T00:41:52.974Z,0.00
2018-10-07T00:42:53.019Z,0.00
2018-10-07T00:43:53.056Z,0.00
2018-10-07T00:44:53.098Z,0.00
2018-10-07T00:45:53.139Z,0.00
2018-10-07T00:46:53.182Z,0.00
2018-10-07T00:47:53.217Z,0.00
2018-10-07T00:48:53.359Z,0.00
2018-10-07T00:49:53.303Z,0.00
2018-10-07T00:50:53.344Z,0.00
2018-10-07T00:51:53.380Z,0.00
2018-10-07T00:52:53.421Z,0.00
2018-10-07T00:53:53.472Z,0.00
2018-10-07T00:54:53.502Z,0.00
2018-10-07T00:55:53.643Z,0.00
2018-10-07T00:56:53.583Z,0.00
2018-10-07T00:57:53.687Z,0.00
2018-10-07T00:58:53.663Z,0.00
2018-10-07T00:59:53.705Z,0.00
2018-10-07T01:00:53.746Z,0.00
2018-10-07T01:01:53.788Z,0.00
2018-10-07T01:02:53.826Z,0.00
2018-10-07T01:03:53.870Z,0.00
2018-10-07T01:04:53.905Z,0.00
2018-10-07T01:05:53.947Z,0.00
2018-10-07T01:06:53.992Z,0.00
2018-10-07T01:07:54.029Z,0.00
2018-10-07T01:08:54.070Z,0.00
2018-10-07T01:09:54.111Z,0.00
2018-10-07T01:10:54.149Z,0.00
2018-10-07T01:11:54.188Z,0.00
2018-10-07T01:12:54.228Z,0.00
2018-10-07T01:13:54.279Z,0.00
2018-10-07T01:14:54.411Z,0.00
2018-10-07T01:15:54.353Z,0.00
2018-10-07T01:16:54.393Z,0.00
2018-10-07T01:17:54.432Z,0.00
2018-10-07T01:18:54.480Z,0.00
2018-10-07T01:19:54.514Z,0.00
2018-10-07T01:20:54.555Z,0.00
2018-10-07T01:21:54.594Z,0.00
2018-10-07T01:22:54.633Z,0.00
2018-10-07T01:23:54.673Z,0.00
2018-10-07T01:24:54.714Z,0.00
2018-10-07T01:25:54.754Z,0.00
2018-10-07T01:26:54.795Z,0.00
2018-10-07T01:27:54.843Z,0.00
2018-10-07T01:28:54.874Z,0.00
2018-10-07T01:29:54.915Z,0.00
2018-10-07T01:30:54.956Z,0.00
2018-10-07T01:31:55.003Z,0.00
2018-10-07T01:32:55.037Z,0.00
2018-10-07T01:33:55.084Z,0.00
2018-10-07T01:34:55.126Z,0.28
2018-10-07T01:35:55.158Z,0.00
2018-10-07T01:36:55.198Z,0.00
2018-10-07T01:37:55.239Z,0.00
2018-10-07T01:38:55.280Z,0.00
2018-10-07T01:39:55.319Z,0.00
2018-10-07T01:40:55.462Z,0.00
2018-10-07T01:41:55.399Z,0.00
2018-10-07T01:42:55.439Z,0.00
2018-10-07T01:43:55.484Z,0.00
2018-10-07T01:44:55.519Z,0.00
2018-10-07T01:45:55.561Z,0.00
2018-10-07T01:46:55.601Z,0.00
2018-10-07T01:47:55.641Z,0.00
2018-10-07T01:48:55.682Z,0.00
2018-10-07T01:49:55.723Z,0.00
2018-10-07T01:50:55.822Z,0.00
2018-10-07T01:51:55.803Z,0.00
2018-10-07T01:52:55.842Z,0.00
2018-10-07T01:53:55.882Z,0.00
2018-10-07T01:54:55.923Z,0.00
2018-10-07T01:55:55.968Z,0.00
2018-10-07T01:56:56.011Z,0.00
2018-10-07T01:57:56.052Z,0.00
2018-10-07T01:58:56.088Z,0.00
2018-10-07T01:59:56.124Z,0.00
2018-10-07T02:00:56.168Z,0.00
2018-10-07T02:01:56.204Z,0.00
2018-10-07T02:02:56.253Z,0.00
2018-10-07T02:03:56.286Z,0.00
2018-10-07T02:04:56.339Z,0.00
2018-10-07T02:05:56.366Z,0.00
2018-10-07T02:06:56.406Z,0.00
2018-10-07T02:07:56.449Z,0.00
2018-10-07T02:08:56.494Z,0.00
2018-10-07T02:09:56.527Z,0.00
2018-10-07T02:10:56.566Z,0.00
2018-10-07T02:11:56.609Z,0.00
2018-10-07T02:12:56.645Z,0.00
2018-10-07T02:13:56.772Z,0.00
2018-10-07T02:14:56.726Z,0.28
2018-10-07T02:15:56.775Z,0.48
2018-10-07T02:16:56.806Z,0.95
2018-10-07T02:17:56.846Z,0.95
2018-10-07T02:18:56.886Z,1.04
2018-10-07T02:19:56.928Z,0.48
2018-10-07T02:20:56.967Z,0.00
2018-10-07T02:21:57.007Z,0.00
2018-10-07T02:22:57.046Z,0.00
2018-10-07T02:23:57.087Z,0.00
2018-10-07T02:24:57.127Z,0.00
2018-10-07T02:25:57.167Z,0.00
2018-10-07T02:26:57.208Z,0.00
2018-10-07T02:27:57.246Z,0.00
2018-10-07T02:28:57.287Z,0.00
2018-10-07T02:29:57.327Z,0.00
2018-10-07T02:30:57.586Z,0.00
2018-10-07T02:31:57.412Z,0.19
2018-10-07T02:32:57.453Z,0.00
2018-10-07T02:33:57.489Z,0.09
2018-10-07T02:34:57.530Z,0.00
2018-10-07T02:35:57.574Z,0.00
2018-10-07T02:36:57.608Z,0.00
2018-10-07T02:37:57.734Z,0.00
2018-10-07T02:38:57.694Z,0.00
2018-10-07T02:39:57.729Z,0.00
2018-10-07T02:40:57.767Z,0.00
2018-10-07T02:41:57.811Z,0.00
2018-10-07T02:42:57.859Z,0.00
2018-10-07T02:43:57.894Z,0.00
2018-10-07T02:44:57.927Z,0.00
2018-10-07T02:45:57.968Z,0.00
2018-10-07T02:46:58.008Z,0.00
2018-10-07T02:47:58.049Z,0.00
2018-10-07T02:48:58.092Z,0.00
2018-10-07T02:49:58.134Z,0.00
2018-10-07T02:50:58.174Z,0.00
2018-10-07T02:51:58.225Z,0.00
2018-10-07T02:52:58.256Z,0.00
2018-10-07T02:53:58.289Z,0.00
2018-10-07T02:54:58.335Z,0.00
2018-10-07T02:55:58.369Z,0.00
2018-10-07T02:56:58.410Z,0.00
2018-10-07T02:57:58.449Z,0.00
2018-10-07T02:58:58.489Z,0.00
2018-10-07T02:59:58.529Z,0.00
2018-10-07T03:00:58.585Z,0.00
2018-10-07T03:01:58.614Z,0.00
2018-10-07T03:02:58.650Z,0.00
2018-10-07T03:03:58.690Z,0.00
2018-10-07T03:04:58.729Z,0.00
2018-10-07T03:05:58.768Z,0.00
2018-10-07T03:06:58.858Z,0.00
2018-10-07T03:07:58.853Z,0.00
2018-10-07T03:08:58.887Z,0.00
2018-10-07T03:09:58.929Z,0.00
2018-10-07T03:10:58.975Z,0.00
2018-10-07T03:11:59.006Z,0.00
2018-10-07T03:12:59.045Z,0.00
2018-10-07T03:13:59.137Z,0.00
2018-10-07T03:14:59.126Z,0.00
2018-10-07T03:15:59.166Z,0.00
2018-10-07T03:16:59.205Z,0.00
2018-10-07T03:17:59.253Z,0.00
2018-10-07T03:18:59.298Z,0.00
2018-10-07T03:19:59.326Z,0.00
2018-10-07T03:20:59.466Z,0.00
2018-10-07T03:21:59.405Z,0.00
2018-10-07T03:22:59.444Z,0.00
2018-10-07T03:23:59.485Z,0.00
2018-10-07T03:24:59.524Z,0.00
2018-10-07T03:25:59.564Z,0.00
2018-10-07T03:26:59.614Z,0.00
2018-10-07T03:27:59.646Z,0.00
2018-10-07T03:28:59.684Z,0.00
2018-10-07T03:29:59.732Z,0.00
2018-10-07T03:30:59.766Z,0.00
2018-10-07T03:31:59.803Z,0.00
2018-10-07T03:32:59.843Z,0.00
2018-10-07T03:33:59.885Z,0.00
2018-10-07T03:34:59.926Z,0.00
2018-10-07T03:35:59.983Z,0.00
2018-10-07T03:37:00.003Z,0.00
2018-10-07T03:38:00.044Z,0.00
2018-10-07T03:39:00.085Z,0.00
2018-10-07T03:40:00.174Z,0.00
2018-10-07T03:41:00.164Z,0.00
2018-10-07T03:42:00.207Z,0.00
2018-10-07T03:43:00.246Z,0.00
2018-10-07T03:44:00.283Z,0.00
2018-10-07T03:45:00.324Z,0.00
2018-10-07T03:46:00.379Z,0.00
2018-10-07T03:47:00.693Z,0.00
2018-10-07T03:48:00.443Z,0.00
2018-10-07T03:49:00.484Z,0.00
2018-10-07T03:50:00.523Z,0.00
2018-10-07T03:51:00.562Z,0.00
2018-10-07T03:52:00.604Z,0.00
2018-10-07T03:53:00.642Z,0.00
2018-10-07T03:54:00.684Z,0.00
2018-10-07T03:55:00.724Z,0.00
2018-10-07T03:56:00.766Z,0.00
2018-10-07T03:57:00.823Z,0.00
2018-10-07T03:58:00.847Z,0.00
2018-10-07T03:59:00.886Z,0.00
2018-10-07T04:00:00.925Z,0.00
2018-10-07T04:01:00.964Z,0.00
2018-10-07T04:02:01.004Z,0.00
2018-10-07T04:03:01.048Z,0.00
2018-10-07T04:04:01.090Z,0.00
2018-10-07T04:05:01.127Z,0.00
2018-10-07T04:06:01.168Z,0.00
2018-10-07T04:07:01.206Z,0.00
2018-10-07T04:08:01.247Z,0.00
2018-10-07T04:09:01.286Z,0.00
2018-10-07T04:10:01.341Z,0.00
2018-10-07T04:11:01.367Z,0.00
2018-10-07T04:12:01.405Z,0.00
2018-10-07T04:13:01.447Z,0.00
2018-10-07T04:14:01.488Z,0.00
2018-10-07T04:15:01.533Z,0.00
2018-10-07T04:16:01.571Z,0.00
2018-10-07T04:17:01.607Z,0.00
2018-10-07T04:18:01.651Z,0.00
2018-10-07T04:19:01.688Z,0.00
2018-10-07T04:20:01.728Z,0.00
2018-10-07T04:21:01.768Z,0.00
2018-10-07T04:22:01.810Z,0.00
2018-10-07T04:23:01.850Z,0.00
2018-10-07T04:24:01.887Z,0.00
2018-10-07T04:25:01.934Z,0.00
2018-10-07T04:26:01.971Z,0.00
2018-10-07T04:27:02.010Z,0.00
2018-10-07T04:28:02.051Z,0.00
2018-10-07T04:29:02.090Z,0.00
2018-10-07T04:30:02.132Z,0.00
2018-10-07T04:31:02.169Z,0.00
2018-10-07T04:32:02.213Z,0.00
2018-10-07T04:33:02.251Z,0.00
2018-10-07T04:34:02.291Z,0.00
2018-10-07T04:35:02.352Z,0.00
2018-10-07T04:36:02.377Z,0.00
2018-10-07T04:37:02.638Z,0.00
2018-10-07T04:38:02.452Z,0.00
2018-10-07T04:39:02.494Z,0.00
2018-10-07T04:40:02.672Z,0.00
2018-10-07T04:41:02.569Z,0.00
2018-10-07T04:42:02.612Z,0.00
2018-10-07T04:43:02.651Z,0.00
2018-10-07T04:44:02.692Z,0.00
2018-10-07T04:45:02.740Z,0.00
2018-10-07T04:46:02.786Z,0.00
2018-10-07T04:47:02.813Z,0.00
2018-10-07T04:48:02.862Z,0.00
2018-10-07T04:49:02.893Z,0.00
2018-10-07T04:50:02.933Z,0.00
2018-10-07T04:51:02.977Z,0.00
2018-10-07T04:52:03.015Z,0.00
2018-10-07T04:53:03.053Z,0.00
2018-10-07T04:54:03.095Z,0.00
2018-10-07T04:55:03.137Z,0.00
2018-10-07T04:56:03.185Z,0.00
2018-10-07T04:57:03.217Z,0.00
2018-10-07T04:58:03.256Z,0.00
2018-10-07T04:59:03.302Z,0.00
2018-10-07T05:00:03.349Z,0.38
2018-10-07T05:01:03.377Z,0.38
2018-10-07T05:02:03.418Z,0.38
2018-10-07T05:03:03.459Z,0.67
2018-10-07T05:04:03.500Z,0.28
2018-10-07T05:05:03.537Z,0.09
2018-10-07T05:06:03.578Z,0.00
2018-10-07T05:07:03.628Z,0.00
2018-10-07T05:08:03.658Z,0.00
2018-10-07T05:09:03.700Z,0.00
2018-10-07T05:10:03.740Z,0.00
2018-10-07T05:11:03.781Z,0.00
2018-10-07T05:12:03.830Z,0.00
2018-10-07T05:13:03.909Z,0.00
2018-10-07T05:14:03.900Z,0.00
2018-10-07T05:15:03.941Z,0.00
2018-10-07T05:16:03.980Z,0.00
2018-10-07T05:17:04.025Z,0.00
2018-10-07T05:18:04.062Z,0.00
2018-10-07T05:19:04.102Z,0.00
2018-10-07T05:20:04.192Z,0.00
2018-10-07T05:21:04.252Z,0.00
2018-10-07T05:22:04.223Z,0.00
2018-10-07T05:23:04.263Z,0.00
2018-10-07T05:24:04.305Z,0.00
2018-10-07T05:25:04.346Z,0.00
2018-10-07T05:26:04.387Z,0.00
2018-10-07T05:27:04.428Z,0.00
2018-10-07T05:28:04.466Z,0.00
2018-10-07T05:29:04.531Z,0.00
2018-10-07T05:30:04.547Z,0.00
2018-10-07T05:31:04.588Z,0.00
2018-10-07T05:32:04.628Z,0.00
2018-10-07T05:33:04.698Z,0.00
2018-10-07T05:34:04.713Z,0.00
2018-10-07T05:35:04.754Z,0.00
2018-10-07T05:36:04.821Z,0.00
2018-10-07T05:37:04.837Z,0.00
2018-10-07T05:38:04.871Z,0.00
2018-10-07T05:39:04.911Z,0.00
2018-10-07T05:40:05.021Z,0.00
2018-10-07T05:41:04.991Z,0.00
2018-10-07T05:42:05.039Z,0.00
2018-10-07T05:43:05.074Z,0.00
2018-10-07T05:44:05.113Z,0.00
2018-10-07T05:45:05.152Z,0.00
2018-10-07T05:46:05.193Z,0.00
2018-10-07T05:47:05.249Z,0.00
2018-10-07T05:48:05.279Z,0.00
2018-10-07T05:49:05.314Z,0.00
2018-10-07T05:50:05.365Z,0.00
2018-10-07T05:51:05.397Z,0.00
2018-10-07T05:52:05.436Z,0.00
2018-10-07T05:53:05.484Z,0.00
2018-10-07T05:54:05.518Z,0.00
2018-10-07T05:55:05.558Z,0.00
2018-10-07T05:56:05.601Z,0.00
2018-10-07T05:57:05.645Z,0.00
2018-10-07T05:58:05.679Z,0.00
2018-10-07T05:59:05.720Z,0.00
2018-10-07T06:00:05.760Z,0.00
2018-10-07T06:01:05.801Z,0.00
2018-10-07T06:02:05.926Z,0.00
2018-10-07T06:03:05.887Z,0.00
2018-10-07T06:04:05.923Z,0.00
2018-10-07T06:05:05.965Z,0.00
2018-10-07T06:06:06.005Z,0.28
2018-10-07T06:07:06.049Z,0.67
2018-10-07T06:08:06.089Z,1.53
2018-10-07T06:09:06.129Z,2.57
2018-10-07T06:10:06.168Z,2.67
2018-10-07T06:11:06.208Z,2.76
2018-10-07T06:12:06.255Z,2.38
2018-10-07T06:13:06.289Z,2.38
2018-10-07T06:14:06.329Z,2.48
2018-10-07T06:15:06.375Z,3.14
2018-10-07T06:16:06.411Z,3.91
2018-10-07T06:17:06.451Z,4.19
2018-10-07T06:18:06.499Z,5.15
2018-10-07T06:19:06.533Z,5.43
2018-10-07T06:20:06.573Z,4.77
2018-10-07T06:21:06.613Z,4.77
2018-10-07T06:22:06.654Z,4.19
2018-10-07T06:23:06.695Z,4.77
2018-10-07T06:24:06.739Z,5.15
2018-10-07T06:25:06.777Z,4.96
2018-10-07T06:26:06.828Z,5.53
2018-10-07T06:27:06.875Z,6.67
2018-10-07T06:28:06.901Z,7.15
2018-10-07T06:29:06.940Z,7.06
2018-10-07T06:30:06.981Z,6.68
2018-10-07T06:31:07.022Z,7.82
2018-10-07T06:32:07.064Z,6.87
2018-10-07T06:33:07.101Z,6.68
2018-10-07T06:34:07.143Z,7.06
2018-10-07T06:35:07.185Z,6.29
2018-10-07T06:36:07.226Z,5.44
2018-10-07T06:37:07.265Z,6.39
2018-10-07T06:38:07.306Z,6.20
2018-10-07T06:39:07.356Z,6.96
2018-10-07T06:40:07.391Z,7.25
2018-10-07T06:41:07.427Z,8.58
2018-10-07T06:42:07.472Z,8.87
2018-10-07T06:43:07.511Z,9.54
2018-10-07T06:44:07.553Z,10.30
2018-10-07T06:45:07.593Z,11.16
2018-10-07T06:46:07.634Z,11.54
2018-10-07T06:47:07.674Z,15.64
2018-10-07T06:48:07.719Z,19.27
2018-10-07T06:49:07.756Z,21.47
2018-10-07T06:50:07.801Z,20.42
2018-10-07T06:51:07.838Z,20.42
2018-10-07T06:52:07.880Z,19.46
2018-10-07T06:53:07.919Z,16.60
2018-10-07T06:54:07.963Z,15.66
2018-10-07T06:55:08.005Z,14.70
2018-10-07T06:56:08.096Z,14.32
2018-10-07T06:57:08.087Z,13.93
2018-10-07T06:58:08.127Z,11.74
2018-10-07T06:59:08.173Z,11.74
2018-10-07T07:00:08.366Z,13.36
2018-10-07T07:01:08.252Z,13.55
2018-10-07T07:02:08.294Z,12.31
2018-10-07T07:03:08.338Z,15.27
2018-10-07T07:04:08.423Z,15.56
2018-10-07T07:05:08.413Z,17.76
2018-10-07T07:06:08.458Z,17.47
2018-10-07T07:07:08.497Z,18.52
2018-10-07T07:08:08.555Z,16.80
2018-10-07T07:09:08.587Z,16.61
2018-10-07T07:10:08.626Z,16.03
2018-10-07T07:11:08.661Z,17.76
2018-10-07T07:12:08.704Z,21.09
2018-10-07T07:13:08.834Z,20.90
2018-10-07T07:14:08.788Z,19.38
2018-10-07T07:15:08.826Z,19.09
2018-10-07T07:16:08.867Z,18.99
2018-10-07T07:17:08.907Z,18.90
2018-10-07T07:18:08.948Z,18.61
2018-10-07T07:19:08.992Z,19.47
2018-10-07T07:20:09.362Z,21.57
2018-10-07T07:21:09.076Z,21.86
2018-10-07T07:22:09.122Z,23.29
2018-10-07T07:23:09.157Z,22.62
2018-10-07T07:24:09.199Z,22.05
2018-10-07T07:25:09.255Z,21.38
2018-10-07T07:26:09.279Z,20.04
2018-10-07T07:27:09.320Z,19.47
2018-10-07T07:28:09.367Z,19.38
2018-10-07T07:29:09.418Z,19.20
2018-10-07T07:30:09.452Z,21.39
2018-10-07T07:31:09.487Z,23.97
2018-10-07T07:32:09.536Z,21.01
2018-10-07T07:33:09.570Z,24.35
2018-10-07T07:34:09.612Z,24.45
2018-10-07T07:35:09.650Z,21.68
2018-10-07T07:36:09.690Z,21.30
2018-10-07T07:37:09.740Z,23.12
2018-10-07T07:38:09.774Z,25.80
2018-10-07T07:39:09.816Z,26.46
2018-10-07T07:40:09.863Z,27.61
2018-10-07T07:41:09.898Z,27.14
2018-10-07T07:42:09.961Z,28.38
2018-10-07T07:43:09.981Z,29.33
2018-10-07T07:44:10.023Z,28.58
2018-10-07T07:45:10.065Z,31.26
2018-10-07T07:46:10.114Z,32.79
2018-10-07T07:47:10.150Z,35.57
2018-10-07T07:48:10.191Z,38.43
2018-10-07T07:49:10.267Z,35.85
2018-10-07T07:50:10.275Z,37.40
2018-10-07T07:51:10.316Z,40.08
2018-10-07T07:52:10.365Z,41.80
2018-10-07T07:53:10.399Z,44.57
2018-10-07T07:54:10.441Z,43.14
2018-10-07T07:55:10.484Z,46.77
2018-10-07T07:56:10.524Z,45.72
2018-10-07T07:57:10.574Z,42.56
2018-10-07T07:58:10.611Z,46.39
2018-10-07T07:59:10.653Z,50.91
2018-10-07T08:00:10.693Z,52.44
2018-10-07T08:01:10.737Z,53.20
2018-10-07T08:02:10.778Z,52.63
2018-10-07T08:03:10.819Z,52.73
2018-10-07T08:04:10.869Z,53.20
2018-10-07T08:05:10.901Z,49.29
2018-10-07T08:06:10.943Z,54.16
2018-10-07T08:07:10.987Z,55.69
2018-10-07T08:08:11.028Z,55.79
2018-10-07T08:09:11.070Z,55.41
2018-10-07T08:10:11.112Z,54.74
2018-10-07T08:11:11.156Z,53.30
2018-10-07T08:12:11.196Z,52.83
2018-10-07T08:13:11.238Z,54.64
2018-10-07T08:14:11.279Z,54.93
2018-10-07T08:15:11.324Z,54.74
2018-10-07T08:16:11.366Z,53.30
2018-10-07T08:17:11.450Z,54.23
2018-10-07T08:18:11.448Z,54.74
2018-10-07T08:19:11.492Z,53.18
2018-10-07T08:20:11.539Z,54.14
2018-10-07T08:21:11.576Z,53.94
2018-10-07T08:22:11.618Z,53.75
2018-10-07T08:23:11.690Z,53.56
2018-10-07T08:24:11.704Z,52.89
2018-10-07T08:25:11.744Z,53.18
2018-10-07T08:26:11.789Z,52.99
2018-10-07T08:27:11.830Z,50.41
2018-10-07T08:28:11.872Z,50.50
2018-10-07T08:29:11.914Z,49.45
2018-10-07T08:30:11.956Z,47.82
2018-10-07T08:31:12.000Z,47.82
2018-10-07T08:32:12.043Z,47.53
2018-10-07T08:33:12.083Z,45.53
2018-10-07T08:34:12.125Z,45.15
2018-10-07T08:35:12.177Z,44.19
2018-10-07T08:36:12.218Z,42.85
2018-10-07T08:37:12.258Z,40.55
2018-10-07T08:38:12.302Z,38.54
2018-10-07T08:39:12.337Z,37.68
2018-10-07T08:40:12.379Z,36.15
2018-10-07T08:41:12.425Z,37.30
2018-10-07T08:42:12.471Z,36.15
2018-10-07T08:43:12.505Z,35.58
2018-10-07T08:44:12.546Z,35.08
2018-10-07T08:45:12.589Z,35.08
2018-10-07T08:46:12.632Z,34.89
2018-10-07T08:47:12.673Z,34.70
2018-10-07T08:48:12.717Z,34.70
2018-10-07T08:49:12.757Z,34.80
2018-10-07T08:50:12.799Z,34.22
2018-10-07T08:51:12.839Z,34.03
2018-10-07T08:52:12.885Z,34.13
2018-10-07T08:53:12.932Z,33.84
2018-10-07T08:54:12.975Z,33.36
2018-10-07T08:55:13.018Z,33.36
2018-10-07T08:56:13.253Z,33.46
2018-10-07T08:57:13.117Z,33.56
2018-10-07T08:58:13.142Z,34.49
2018-10-07T08:59:13.176Z,34.22
2018-10-07T09:00:13.217Z,33.73
2018-10-07T09:01:13.258Z,33.73
2018-10-07T09:02:13.396Z,33.83
2018-10-07T09:03:13.353Z,33.73
2018-10-07T09:04:13.387Z,34.40
2018-10-07T09:05:13.425Z,34.20
2018-10-07T09:06:13.467Z,34.20
2018-10-07T09:07:13.516Z,34.40
2018-10-07T09:08:13.550Z,34.59
2018-10-07T09:09:13.597Z,35.93
2018-10-07T09:10:13.633Z,35.16
2018-10-07T09:11:13.678Z,35.06
2018-10-07T09:12:13.716Z,34.97
2018-10-07T09:13:13.756Z,35.16
2018-10-07T09:14:13.798Z,34.69
2018-10-07T09:15:13.842Z,34.40
2018-10-07T09:16:13.882Z,33.54
2018-10-07T09:17:13.929Z,33.64
2018-10-07T09:18:13.966Z,34.97
2018-10-07T09:19:14.007Z,34.69
2018-10-07T09:20:14.049Z,34.97
2018-10-07T09:21:14.091Z,36.12
2018-10-07T09:22:14.149Z,36.50
2018-10-07T09:23:14.173Z,37.84
2018-10-07T09:24:14.215Z,38.32
2018-10-07T09:25:14.255Z,40.99
2018-10-07T09:26:14.297Z,42.81
2018-10-07T09:27:14.405Z,41.95
2018-10-07T09:28:14.380Z,42.69
2018-10-07T09:29:14.425Z,42.50
2018-10-07T09:30:14.463Z,42.97
2018-10-07T09:31:14.504Z,42.88
2018-10-07T09:32:14.598Z,42.60
2018-10-07T09:33:14.587Z,42.97
2018-10-07T09:34:14.628Z,43.55
2018-10-07T09:35:14.669Z,44.12
2018-10-07T09:36:14.711Z,44.12
2018-10-07T09:37:14.750Z,44.41
2018-10-07T09:38:14.793Z,45.46
2018-10-07T09:39:14.848Z,46.32
2018-10-07T09:40:14.875Z,45.84
2018-10-07T09:41:14.916Z,46.22
2018-10-07T09:42:14.958Z,46.03
2018-10-07T09:43:15.017Z,46.99
2018-10-07T09:44:15.043Z,47.56
2018-10-07T09:45:15.085Z,47.66
2018-10-07T09:46:15.133Z,47.94
2018-10-07T09:47:15.233Z,48.33
2018-10-07T09:48:15.225Z,47.56
2018-10-07T09:49:15.262Z,47.47
2018-10-07T09:50:15.299Z,47.27
2018-10-07T09:51:15.338Z,47.56
2018-10-07T09:52:15.412Z,47.37
2018-10-07T09:53:15.415Z,47.47
2018-10-07T09:54:15.456Z,47.47
2018-10-07T09:55:15.496Z,46.70
2018-10-07T09:56:15.537Z,46.80
2018-10-07T09:57:15.578Z,46.03
2018-10-07T09:58:15.617Z,47.68
2018-10-07T09:59:15.659Z,50.33
2018-10-07T10:00:15.701Z,49.85
2018-10-07T10:01:15.768Z,50.62
2018-10-07T10:02:15.783Z,49.40
2018-10-07T10:03:15.833Z,50.35
2018-10-07T10:04:15.970Z,50.33
2018-10-07T10:05:15.905Z,50.45
2018-10-07T10:06:15.946Z,49.78
2018-10-07T10:07:15.992Z,50.35
2018-10-07T10:08:16.031Z,50.26
2018-10-07T10:09:16.087Z,49.78
2018-10-07T10:10:16.122Z,50.45
2018-10-07T10:11:16.254Z,50.74
2018-10-07T10:12:16.200Z,50.84
2018-10-07T10:13:16.234Z,51.21
2018-10-07T10:14:16.399Z,49.78
2018-10-07T10:15:16.318Z,50.55
2018-10-07T10:16:16.361Z,50.24
2018-10-07T10:17:16.403Z,49.66
2018-10-07T10:18:16.444Z,50.43
2018-10-07T10:19:16.488Z,50.33
2018-10-07T10:20:16.528Z,50.43
2018-10-07T10:21:16.566Z,50.43
2018-10-07T10:22:16.608Z,50.81
2018-10-07T10:23:16.659Z,49.57
2018-10-07T10:24:16.700Z,50.43
2018-10-07T10:25:16.731Z,50.24
2018-10-07T10:26:16.774Z,51.00
2018-10-07T10:27:16.816Z,51.19
2018-10-07T10:28:16.860Z,52.43
2018-10-07T10:29:16.896Z,52.15
2018-10-07T10:30:16.989Z,52.08
2018-10-07T10:31:16.986Z,52.72
2018-10-07T10:32:17.021Z,51.76
2018-10-07T10:33:17.064Z,52.05
2018-10-07T10:34:17.102Z,53.86
2018-10-07T10:35:17.142Z,54.34
2018-10-07T10:36:17.184Z,54.25
2018-10-07T10:37:17.227Z,54.15
2018-10-07T10:38:17.265Z,54.25
2018-10-07T10:39:17.309Z,55.61
2018-10-07T10:40:17.358Z,55.71
2018-10-07T10:41:17.394Z,56.67
2018-10-07T10:42:17.494Z,57.81
2018-10-07T10:43:17.473Z,59.05
2018-10-07T10:44:17.526Z,59.72
2018-10-07T10:45:17.554Z,61.06
2018-10-07T10:46:17.604Z,61.85
2018-10-07T10:47:17.639Z,63.19
2018-10-07T10:48:17.682Z,63.57
2018-10-07T10:49:17.728Z,66.06
2018-10-07T10:50:17.761Z,66.73
2018-10-07T10:51:17.804Z,67.02
2018-10-07T10:52:17.848Z,68.39
2018-10-07T10:53:17.887Z,70.68
2018-10-07T10:54:17.940Z,72.98
2018-10-07T10:55:18.072Z,72.31
2018-10-07T10:56:18.014Z,73.08
2018-10-07T10:57:18.061Z,74.41
2018-10-07T10:58:18.096Z,76.04
2018-10-07T10:59:18.138Z,76.23
2018-10-07T11:00:18.180Z,75.56
2018-10-07T11:01:18.224Z,74.61
2018-10-07T11:02:18.276Z,75.27
2018-10-07T11:03:18.303Z,75.27
2018-10-07T11:04:18.350Z,76.42
2018-10-07T11:05:18.387Z,76.81
2018-10-07T11:06:18.436Z,75.85
2018-10-07T11:07:18.470Z,76.10
2018-10-07T11:08:18.512Z,76.23
2018-10-07T11:09:18.608Z,75.14
2018-10-07T11:10:18.595Z,74.32
2018-10-07T11:11:18.638Z,74.95
2018-10-07T11:12:18.685Z,77.95
2018-10-07T11:13:18.728Z,79.20
2018-10-07T11:14:18.761Z,79.35
2018-10-07T11:15:18.851Z,78.63
2018-10-07T11:16:18.847Z,79.58
2018-10-07T11:17:18.889Z,81.68
2018-10-07T11:18:18.927Z,82.54
2018-10-07T11:19:19.033Z,82.26
2018-10-07T11:20:19.025Z,82.17
2018-10-07T11:21:19.060Z,81.88
2018-10-07T11:22:19.095Z,82.35
2018-10-07T11:23:19.135Z,82.59
2018-10-07T11:24:19.181Z,82.97
2018-10-07T11:25:19.221Z,83.93
2018-10-07T11:26:19.378Z,86.74
2018-10-07T11:27:19.303Z,87.13
2018-10-07T11:28:19.354Z,87.80
2018-10-07T11:29:19.386Z,88.66
2018-10-07T11:30:19.427Z,89.62
2018-10-07T11:31:19.471Z,89.62
2018-10-07T11:32:19.512Z,90.67
2018-10-07T11:33:19.553Z,90.53
2018-10-07T11:34:19.595Z,89.48
2018-10-07T11:35:19.638Z,89.48
2018-10-07T11:36:19.679Z,89.86
2018-10-07T11:37:19.720Z,90.34
2018-10-07T11:38:19.768Z,90.29
2018-10-07T11:39:19.806Z,90.39
2018-10-07T11:40:19.859Z,91.63
2018-10-07T11:41:19.889Z,91.53
2018-10-07T11:42:19.935Z,90.77
2018-10-07T11:43:19.974Z,91.72
2018-10-07T11:44:20.020Z,91.44
2018-10-07T11:45:20.057Z,91.72
2018-10-07T11:46:20.102Z,91.92
2018-10-07T11:47:20.145Z,91.53
2018-10-07T11:48:20.186Z,91.96
2018-10-07T11:49:20.252Z,92.25
2018-10-07T11:50:20.270Z,92.54
2018-10-07T11:51:20.314Z,92.20
2018-10-07T11:52:20.356Z,94.02
2018-10-07T11:53:20.398Z,92.58
2018-10-07T11:54:20.440Z,94.12
2018-10-07T11:55:20.481Z,93.30
2018-10-07T11:56:20.528Z,94.74
2018-10-07T11:57:20.577Z,94.54
2018-10-07T11:58:20.617Z,94.64
2018-10-07T11:59:20.651Z,95.70
2018-10-07T12:00:20.695Z,94.64
2018-10-07T12:01:20.736Z,94.93
2018-10-07T12:02:20.858Z,94.50
2018-10-07T12:03:20.824Z,94.79
2018-10-07T12:04:20.876Z,94.12
2018-10-07T12:05:20.907Z,95.75
2018-10-07T12:06:20.953Z,95.17
2018-10-07T12:07:20.993Z,94.84
2018-10-07T12:08:21.037Z,95.41
2018-10-07T12:09:21.078Z,95.03
2018-10-07T12:10:21.240Z,94.64
2018-10-07T12:11:21.165Z,95.65
2018-10-07T12:12:21.230Z,95.31
2018-10-07T12:13:21.250Z,95.03
2018-10-07T12:14:21.298Z,95.07
2018-10-07T12:15:21.334Z,95.12
2018-10-07T12:16:21.448Z,95.27
2018-10-07T12:17:21.427Z,93.83
2018-10-07T12:18:21.464Z,94.50
2018-10-07T12:19:21.515Z,95.46
2018-10-07T12:20:21.551Z,94.40
2018-10-07T12:21:21.593Z,94.21
2018-10-07T12:22:21.635Z,94.60
2018-10-07T12:23:21.686Z,93.83
2018-10-07T12:24:21.722Z,94.40
2018-10-07T12:25:21.762Z,94.89
2018-10-07T12:26:21.803Z,94.40
2018-10-07T12:27:21.847Z,95.07
2018-10-07T12:28:21.889Z,95.03
2018-10-07T12:29:21.938Z,94.55
2018-10-07T12:30:21.974Z,94.26
2018-10-07T12:31:22.015Z,95.22
2018-10-07T12:32:22.060Z,95.22
2018-10-07T12:33:22.105Z,95.60
2018-10-07T12:34:22.144Z,95.12
2018-10-07T12:35:22.186Z,94.17
2018-10-07T12:36:22.229Z,95.07
2018-10-07T12:37:22.276Z,95.51
2018-10-07T12:38:22.318Z,95.98
2018-10-07T12:39:22.357Z,94.69
2018-10-07T12:40:22.407Z,94.21
2018-10-07T12:41:22.441Z,95.31
2018-10-07T12:42:22.501Z,94.26
2018-10-07T12:43:22.526Z,95.60
2018-10-07T12:44:22.570Z,95.12
2018-10-07T12:45:22.617Z,96.18
2018-10-07T12:46:22.657Z,95.31
2018-10-07T12:47:22.697Z,96.13
2018-10-07T12:48:22.761Z,96.03
2018-10-07T12:49:22.789Z,95.75
2018-10-07T12:50:22.826Z,95.98
2018-10-07T12:51:22.868Z,96.66
2018-10-07T12:52:22.918Z,95.89
2018-10-07T12:53:22.954Z,96.08
2018-10-07T12:54:23.004Z,95.41
2018-10-07T12:55:23.037Z,95.89
2018-10-07T12:56:23.082Z,96.89
2018-10-07T12:57:23.130Z,95.46
2018-10-07T12:58:23.165Z,96.08
2018-10-07T12:59:23.208Z,96.75
2018-10-07T13:00:23.251Z,96.51
2018-10-07T13:01:23.294Z,96.13
2018-10-07T13:02:23.336Z,95.46
2018-10-07T13:03:23.392Z,95.27
2018-10-07T13:04:23.440Z,95.84
2018-10-07T13:05:23.463Z,96.03
2018-10-07T13:06:23.506Z,96.03